createdAt,value
2018-12-15T00:02:29.646Z,68.18
2018-12-15T00:05:36.430Z,68.01
2018-12-15T00:08:41.185Z,68.30
2018-12-15T00:11:45.938Z,68.87
2018-12-15T00:14:50.720Z,68.45
2018-12-15T00:17:55.453Z,70.35
2018-12-15T00:21:00.180Z,70.09
2018-12-15T00:24:04.913Z,70.64
2018-12-15T00:27:09.725Z,69.99
2018-12-15T00:30:14.870Z,70.26
2018-12-15T00:33:19.761Z,69.49
2018-12-15T00:36:24.518Z,69.04
2018-12-15T00:39:29.240Z,68.45
2018-12-15T00:42:34.873Z,68.69
2018-12-15T00:45:39.600Z,69.21
2018-12-15T00:48:44.350Z,69.69
2018-12-15T00:51:49.103Z,69.28
2018-12-15T00:54:53.825Z,69.11
2018-12-15T00:57:58.563Z,68.60
2018-12-15T01:01:03.368Z,68.46
2018-12-15T01:04:09.163Z,68.39
2018-12-15T01:07:13.957Z,67.83
2018-12-15T01:10:18.810Z,68.99
2018-12-15T01:13:23.593Z,68.28
2018-12-15T01:16:28.346Z,68.61
2018-12-15T01:19:34.147Z,68.86
2018-12-15T01:22:38.895Z,69.89
2018-12-15T01:25:43.621Z,68.81
2018-12-15T01:28:48.355Z,68.67
2018-12-15T01:31:53.135Z,68.08
2018-12-15T01:34:57.883Z,69.32
2018-12-15T01:38:02.575Z,69.75
2018-12-15T01:41:07.304Z,69.87
2018-12-15T01:44:12.093Z,69.09
2018-12-15T01:47:16.833Z,69.38
2018-12-15T01:50:21.556Z,68.60
2018-12-15T01:53:26.438Z,68.48
2018-12-15T01:56:31.276Z,69.07
2018-12-15T01:59:36.014Z,70.20
2018-12-15T02:02:40.851Z,69.23
2018-12-15T02:05:45.552Z,69.85
2018-12-15T02:08:50.832Z,70.18
2018-12-15T02:11:57.609Z,69.40
2018-12-15T02:15:02.368Z,69.45
2018-12-15T02:18:08.166Z,69.20
2018-12-15T02:21:12.938Z,68.75
2018-12-15T02:24:17.753Z,69.27
2018-12-15T02:27:22.493Z,68.39
2018-12-15T02:30:27.239Z,69.49
2018-12-15T02:33:31.955Z,69.61
2018-12-15T02:36:36.785Z,69.30
2018-12-15T02:39:41.557Z,69.45
2018-12-15T02:42:46.301Z,70.98
2018-12-15T02:45:51.049Z,70.55
2018-12-15T02:48:55.795Z,69.40
2018-12-15T02:52:00.542Z,69.15
2018-12-15T02:55:05.421Z,69.87
2018-12-15T02:58:10.167Z,69.63
2018-12-15T03:01:15.260Z,69.90
2018-12-15T03:04:20.022Z,69.46
2018-12-15T03:07:24.951Z,69.09
2018-12-15T03:10:29.672Z,69.06
2018-12-15T03:13:34.427Z,69.98
2018-12-15T03:16:43.439Z,69.25
2018-12-15T03:19:48.177Z,70.61
2018-12-15T03:22:52.873Z,69.97
2018-12-15T03:25:58.094Z,69.17
2018-12-15T03:29:02.895Z,69.01
2018-12-15T03:32:07.656Z,68.67
2018-12-15T03:35:12.530Z,68.79
2018-12-15T03:38:17.253Z,69.33
2018-12-15T03:41:21.989Z,69.55
2018-12-15T03:44:26.893Z,70.01
2018-12-15T03:47:31.625Z,69.73
2018-12-15T03:50:36.471Z,69.52
2018-12-15T03:53:41.209Z,69.02
2018-12-15T03:56:45.942Z,69.15
2018-12-15T03:59:50.944Z,69.54
2018-12-15T04:02:55.648Z,68.92
2018-12-15T04:06:00.392Z,68.70
2018-12-15T04:09:06.958Z,69.17
2018-12-15T04:12:12.773Z,69.12
2018-12-15T04:15:17.526Z,68.64
2018-12-15T04:18:22.255Z,68.89
2018-12-15T04:21:27.012Z,68.83
2018-12-15T04:24:31.714Z,68.48
2018-12-15T04:27:36.466Z,69.13
2018-12-15T04:30:43.258Z,68.90
2018-12-15T04:33:47.963Z,69.35
2018-12-15T04:36:52.703Z,71.03
2018-12-15T04:39:57.423Z,71.26
2018-12-15T04:43:02.485Z,70.20
2018-12-15T04:46:07.198Z,71.63
2018-12-15T04:49:11.917Z,70.88
2018-12-15T04:52:16.714Z,70.22
2018-12-15T04:55:21.607Z,70.72
2018-12-15T04:58:26.354Z,70.22
2018-12-15T05:01:31.121Z,70.46
2018-12-15T05:04:36.184Z,72.13
2018-12-15T05:07:40.910Z,71.92
2018-12-15T05:10:46.715Z,70.94
2018-12-15T05:13:51.452Z,70.87
2018-12-15T05:16:56.204Z,72.40
2018-12-15T05:20:01.015Z,73.13
2018-12-15T05:23:05.781Z,71.05
2018-12-15T05:26:10.533Z,70.31
2018-12-15T05:29:15.236Z,69.80
2018-12-15T05:32:19.952Z,69.79
2018-12-15T05:35:24.805Z,69.44
2018-12-15T05:38:29.523Z,70.25
2018-12-15T05:41:34.316Z,70.16
2018-12-15T05:44:39.031Z,69.67
2018-12-15T05:47:43.811Z,69.79
2018-12-15T05:50:48.545Z,70.19
2018-12-15T05:53:53.263Z,70.37
2018-12-15T05:56:58.167Z,69.64
2018-12-15T06:00:03.009Z,71.17
2018-12-15T06:03:07.929Z,70.03
2018-12-15T06:06:12.685Z,69.99
2018-12-15T06:09:17.421Z,69.93
2018-12-15T06:12:22.164Z,69.68
2018-12-15T06:15:26.972Z,69.83
2018-12-15T06:18:31.993Z,69.92
2018-12-15T06:21:36.811Z,70.55
2018-12-15T06:24:41.565Z,70.27
2018-12-15T06:27:46.311Z,70.74
2018-12-15T06:30:51.048Z,69.76
2018-12-15T06:33:55.861Z,69.95
2018-12-15T06:37:00.614Z,70.59
2018-12-15T06:40:06.509Z,69.97
2018-12-15T06:43:11.277Z,69.83
2018-12-15T06:46:16.018Z,70.25
2018-12-15T06:49:20.722Z,69.58
2018-12-15T06:52:25.476Z,70.14
2018-12-15T06:55:30.209Z,69.45
2018-12-15T06:58:35.005Z,69.55
2018-12-15T07:01:39.744Z,69.29
2018-12-15T07:04:44.448Z,69.42
2018-12-15T07:07:49.206Z,69.52
2018-12-15T07:10:54.032Z,69.31
2018-12-15T07:13:58.758Z,69.17
2018-12-15T07:17:03.486Z,69.36
2018-12-15T07:20:08.282Z,69.01
2018-12-15T07:23:13.102Z,71.74
2018-12-15T07:26:17.866Z,71.72
2018-12-15T07:29:22.661Z,70.35
2018-12-15T07:32:27.451Z,69.43
2018-12-15T07:35:32.298Z,69.62
2018-12-15T07:41:53.777Z,71.45
2018-12-15T07:44:58.548Z,69.71
2018-12-15T07:48:03.285Z,69.82
2018-12-15T07:51:08.045Z,69.68
2018-12-15T07:54:12.787Z,70.22
2018-12-15T07:57:17.557Z,69.77
2018-12-15T08:00:22.361Z,69.85
2018-12-15T08:03:27.137Z,69.48
2018-12-15T08:06:31.947Z,69.52
2018-12-15T08:09:36.741Z,69.74
2018-12-15T08:12:43.480Z,69.99
2018-12-15T08:15:48.219Z,69.25
2018-12-15T08:18:57.989Z,70.01
2018-12-15T08:21:59.797Z,70.11
2018-12-15T08:25:04.912Z,69.25
2018-12-15T08:28:09.665Z,69.61
2018-12-15T08:31:14.477Z,70.13
2018-12-15T08:34:19.217Z,70.88
2018-12-15T08:37:23.985Z,70.18
2018-12-15T08:40:28.738Z,69.81
2018-12-15T08:43:33.733Z,69.90
2018-12-15T08:46:38.481Z,70.00
2018-12-15T08:49:43.289Z,69.72
2018-12-15T08:52:48.090Z,69.32
2018-12-15T08:55:52.830Z,69.85
2018-12-15T08:58:57.713Z,70.02
2018-12-15T09:02:02.448Z,70.05
2018-12-15T09:05:07.255Z,70.70
2018-12-15T09:08:12.017Z,70.32
2018-12-15T09:11:16.924Z,69.87
2018-12-15T09:14:21.681Z,71.06
2018-12-15T09:17:26.486Z,70.54
2018-12-15T09:20:31.293Z,70.29
2018-12-15T09:23:36.048Z,70.71
2018-12-15T09:26:40.813Z,69.76
2018-12-15T09:29:45.601Z,69.66
2018-12-15T09:32:50.373Z,70.23
2018-12-15T09:35:55.294Z,69.18
2018-12-15T09:39:01.106Z,70.52
2018-12-15T09:42:07.910Z,70.25
2018-12-15T09:45:13.773Z,69.80
2018-12-15T09:48:18.539Z,70.12
2018-12-15T09:51:23.281Z,71.80
2018-12-15T09:54:28.125Z,70.34
2018-12-15T09:57:33.004Z,70.94
2018-12-15T10:00:37.784Z,72.10
2018-12-15T10:03:42.599Z,71.73
2018-12-15T10:06:47.345Z,71.59
2018-12-15T10:09:52.109Z,74.34
2018-12-15T10:12:56.874Z,72.39
2018-12-15T10:16:01.630Z,71.72
2018-12-15T10:19:06.474Z,72.56
2018-12-15T10:22:11.619Z,71.33
2018-12-15T10:25:16.377Z,71.87
2018-12-15T10:28:21.110Z,71.89
2018-12-15T10:31:31.080Z,71.35
2018-12-15T10:34:35.864Z,70.78
2018-12-15T10:37:40.698Z,70.94
2018-12-15T10:40:45.424Z,70.37
2018-12-15T10:43:50.364Z,69.96
2018-12-15T10:46:55.164Z,70.69
2018-12-15T10:50:01.979Z,69.01
2018-12-15T10:53:08.783Z,69.97
2018-12-15T10:56:15.578Z,69.50
2018-12-15T10:59:20.449Z,70.99
2018-12-15T11:02:26.627Z,70.00
2018-12-15T11:05:31.513Z,70.04
2018-12-15T11:08:36.459Z,70.32
2018-12-15T11:11:41.259Z,70.10
2018-12-15T11:14:47.405Z,71.59
2018-12-15T11:17:52.202Z,71.56
2018-12-15T11:20:56.958Z,71.81
2018-12-15T11:24:01.884Z,72.66
2018-12-15T11:27:08.142Z,73.40
2018-12-15T11:30:13.061Z,72.21
2018-12-15T11:33:17.933Z,73.08
2018-12-15T11:36:22.814Z,72.84
2018-12-15T11:39:27.679Z,71.76
2018-12-15T11:42:32.429Z,71.58
2018-12-15T11:45:37.169Z,72.52
2018-12-15T11:48:42.060Z,72.64
2018-12-15T11:51:46.843Z,70.91
2018-12-15T11:54:51.621Z,71.08
2018-12-15T11:57:56.373Z,71.44
2018-12-15T12:01:01.403Z,70.84
2018-12-15T12:04:08.188Z,71.02
2018-12-15T12:07:14.063Z,70.97
2018-12-15T12:10:18.832Z,70.06
2018-12-15T12:13:23.774Z,71.25
2018-12-15T12:16:28.641Z,71.27
2018-12-15T12:19:33.373Z,72.25
2018-12-15T12:22:38.091Z,72.01
2018-12-15T12:25:44.895Z,70.98
2018-12-15T12:28:51.673Z,70.64
2018-12-15T12:31:56.439Z,72.23
2018-12-15T12:35:01.192Z,71.38
2018-12-15T12:38:07.992Z,70.98
2018-12-15T12:41:12.777Z,71.64
2018-12-15T12:44:18.553Z,70.95
2018-12-15T12:47:23.314Z,71.14
2018-12-15T12:50:28.981Z,71.93
2018-12-15T12:53:34.267Z,71.73
2018-12-15T12:56:39.555Z,71.63
2018-12-15T12:59:44.740Z,71.89
2018-12-15T13:02:49.949Z,72.15
2018-12-15T13:05:55.177Z,71.48
2018-12-15T13:08:59.951Z,71.93
2018-12-15T13:12:04.677Z,72.16
2018-12-15T13:15:09.464Z,72.73
2018-12-15T13:18:14.178Z,73.14
2018-12-15T13:21:18.962Z,72.61
2018-12-15T13:24:23.683Z,72.95
2018-12-15T13:27:28.439Z,74.89
2018-12-15T13:30:33.188Z,74.36
2018-12-15T13:33:37.982Z,74.15
2018-12-15T13:36:42.773Z,74.83
2018-12-15T13:39:47.494Z,74.45
2018-12-15T13:42:52.250Z,73.88
2018-12-15T13:45:57.045Z,73.08
2018-12-15T13:49:01.805Z,73.39
2018-12-15T13:52:08.203Z,73.37
2018-12-15T13:55:13.411Z,72.82
2018-12-15T13:58:18.124Z,72.05
2018-12-15T14:01:22.874Z,73.67
2018-12-15T14:04:28.120Z,73.69
2018-12-15T14:07:32.870Z,73.92
2018-12-15T14:10:37.618Z,73.47
2018-12-15T14:13:43.468Z,73.92
2018-12-15T14:16:48.182Z,72.96
2018-12-15T14:19:52.948Z,72.90
2018-12-15T14:22:57.712Z,72.99
2018-12-15T14:26:05.561Z,73.21
2018-12-15T14:29:10.335Z,72.78
2018-12-15T14:32:15.049Z,73.43
2018-12-15T14:35:19.790Z,73.05
2018-12-15T14:38:24.659Z,75.17
2018-12-15T14:41:29.390Z,74.05
2018-12-15T14:44:34.154Z,74.81
2018-12-15T14:47:38.893Z,73.54
2018-12-15T14:50:43.619Z,73.40
2018-12-15T14:53:48.421Z,73.75
2018-12-15T14:56:53.248Z,73.40
2018-12-15T14:59:58.002Z,73.38
2018-12-15T15:03:02.793Z,72.83
2018-12-15T15:06:07.555Z,73.67
2018-12-15T15:09:12.332Z,73.37
2018-12-15T15:12:17.113Z,74.18
2018-12-15T15:15:21.861Z,75.35
2018-12-15T15:18:26.629Z,74.60
2018-12-15T15:21:31.474Z,75.26
2018-12-15T15:24:36.186Z,74.73
2018-12-15T15:27:40.952Z,75.56
2018-12-15T15:30:46.052Z,75.58
2018-12-15T15:33:50.821Z,75.16
2018-12-15T15:36:55.592Z,75.30
2018-12-15T15:40:00.518Z,74.11
2018-12-15T15:43:05.289Z,74.36
2018-12-15T15:46:10.067Z,73.91
2018-12-15T15:49:14.799Z,74.71
2018-12-15T15:52:19.621Z,74.63
2018-12-15T15:55:24.389Z,74.07
2018-12-15T15:58:29.291Z,74.18
2018-12-15T16:01:34.090Z,74.39
2018-12-15T16:04:39.098Z,74.11
2018-12-15T16:07:43.883Z,74.44
2018-12-15T16:10:48.654Z,74.31
2018-12-15T16:13:53.441Z,74.91
2018-12-15T16:16:58.486Z,73.86
2018-12-15T16:20:03.390Z,74.92
2018-12-15T16:23:08.108Z,75.16
2018-12-15T16:26:12.858Z,75.35
2018-12-15T16:29:24.068Z,76.49
2018-12-15T16:32:28.804Z,75.85
2018-12-15T16:35:33.638Z,75.30
2018-12-15T16:38:38.396Z,75.59
2018-12-15T16:41:43.151Z,75.32
2018-12-15T16:44:47.878Z,75.62
2018-12-15T16:47:52.688Z,74.83
2018-12-15T16:50:57.437Z,76.77
2018-12-15T16:54:03.360Z,75.72
2018-12-15T16:57:08.192Z,75.00
2018-12-15T17:00:15.183Z,74.80
2018-12-15T17:03:20.202Z,75.33
2018-12-15T17:06:25.008Z,75.86
2018-12-15T17:09:29.765Z,75.04
2018-12-15T17:12:34.625Z,75.75
2018-12-15T17:15:39.385Z,75.29
2018-12-15T17:18:45.930Z,75.45
2018-12-15T17:21:50.890Z,74.97
2018-12-15T17:24:55.870Z,75.24
2018-12-15T17:28:00.834Z,74.52
2018-12-15T17:31:06.090Z,75.23
2018-12-15T17:34:10.886Z,74.85
2018-12-15T17:37:15.882Z,75.39
2018-12-15T17:40:21.044Z,74.75
2018-12-15T17:43:26.245Z,76.24
2018-12-15T17:46:31.957Z,75.65
2018-12-15T17:49:36.772Z,76.67
2018-12-15T17:52:41.544Z,76.22
2018-12-15T17:55:47.525Z,75.68
2018-12-15T17:58:52.298Z,75.29
2018-12-15T18:01:57.082Z,74.69
2018-12-15T18:05:01.855Z,74.67
2018-12-15T18:08:07.723Z,75.20
2018-12-15T18:11:12.505Z,74.38
2018-12-15T18:14:19.370Z,74.13
2018-12-15T18:17:24.150Z,73.69
2018-12-15T18:20:28.915Z,73.96
2018-12-15T18:23:33.929Z,73.55
2018-12-15T18:26:38.710Z,73.13
2018-12-15T18:29:43.715Z,73.27
2018-12-15T18:32:48.486Z,75.26
2018-12-15T18:35:53.557Z,74.85
2018-12-15T18:38:58.326Z,75.13
2018-12-15T18:42:03.134Z,74.91
2018-12-15T18:45:08.398Z,75.19
2018-12-15T18:48:13.177Z,74.33
2018-12-15T18:51:18.235Z,74.59
2018-12-15T18:54:23.218Z,74.11
2018-12-15T18:57:28.060Z,75.69
2018-12-15T19:00:32.878Z,74.91
2018-12-15T19:03:37.829Z,74.73
2018-12-15T19:06:42.626Z,74.49
2018-12-15T19:09:47.444Z,76.56
2018-12-15T19:12:52.351Z,74.83
2018-12-15T19:15:57.187Z,75.36
2018-12-15T19:19:01.994Z,77.06
2018-12-15T19:22:06.973Z,76.96
2018-12-15T19:25:12.253Z,76.29
2018-12-15T19:28:17.270Z,75.15
2018-12-15T19:31:22.028Z,75.99
2018-12-15T19:34:26.811Z,75.46
2018-12-15T19:37:32.867Z,75.16
2018-12-15T19:40:37.645Z,74.65
2018-12-15T19:43:42.553Z,75.09
2018-12-15T19:46:47.357Z,75.08
2018-12-15T19:49:52.131Z,74.68
2018-12-15T19:52:57.925Z,74.40
2018-12-15T19:56:02.694Z,74.40
2018-12-15T19:59:09.711Z,73.93
2018-12-15T20:02:14.489Z,74.27
2018-12-15T20:05:19.306Z,74.04
2018-12-15T20:08:24.093Z,73.76
2018-12-15T20:11:28.889Z,74.02
2018-12-15T20:14:33.666Z,73.76
2018-12-15T20:17:38.612Z,73.62
2018-12-15T20:20:43.381Z,74.49
2018-12-15T20:23:48.132Z,73.78
2018-12-15T20:26:52.942Z,74.44
2018-12-15T20:29:57.743Z,74.99
2018-12-15T20:33:02.545Z,75.01
2018-12-15T20:36:07.315Z,74.76
2018-12-15T20:39:12.086Z,74.78
2018-12-15T20:42:16.857Z,74.31
2018-12-15T20:45:21.670Z,74.70
2018-12-15T20:48:26.409Z,74.69
2018-12-15T20:51:31.206Z,73.73
2018-12-15T20:54:35.969Z,74.57
2018-12-15T20:57:40.700Z,74.55
2018-12-15T21:00:45.471Z,75.08
2018-12-15T21:03:50.193Z,74.33
2018-12-15T21:06:54.971Z,75.31
2018-12-15T21:09:59.738Z,75.29
2018-12-15T21:13:04.658Z,74.54
2018-12-15T21:16:09.581Z,74.60
2018-12-15T21:19:14.329Z,74.75
2018-12-15T21:22:20.457Z,76.17
2018-12-15T21:25:25.389Z,77.55
2018-12-15T21:28:30.306Z,75.58
2018-12-15T21:31:35.090Z,75.11
2018-12-15T21:34:39.845Z,75.29
2018-12-15T21:37:44.643Z,75.69
2018-12-15T21:40:49.394Z,75.01
2018-12-15T21:43:54.134Z,74.33
2018-12-15T21:46:58.906Z,74.48
2018-12-15T21:50:03.824Z,74.63
2018-12-15T21:53:08.600Z,74.29
2018-12-15T21:56:13.345Z,74.22
2018-12-15T21:59:18.113Z,72.88
2018-12-15T22:02:22.852Z,73.54
2018-12-15T22:05:27.646Z,73.87
2018-12-15T22:08:32.474Z,73.98
2018-12-15T22:11:37.213Z,74.89
2018-12-15T22:14:42.183Z,73.53
2018-12-15T22:17:46.971Z,73.76
2018-12-15T22:20:52.034Z,74.46
2018-12-15T22:23:56.847Z,74.29
2018-12-15T22:27:01.574Z,74.49
2018-12-15T22:30:07.429Z,74.23
2018-12-15T22:33:12.190Z,74.01
2018-12-15T22:36:16.942Z,74.19
2018-12-15T22:39:21.667Z,72.66
2018-12-15T22:42:26.422Z,73.94
2018-12-15T22:45:31.312Z,73.36
2018-12-15T22:48:36.075Z,74.13
2018-12-15T22:51:40.949Z,73.94
2018-12-15T22:54:45.701Z,73.92
2018-12-15T22:57:50.478Z,72.71
2018-12-15T23:01:01.376Z,73.88
2018-12-15T23:04:08.159Z,72.35
2018-12-15T23:07:12.914Z,73.38
2018-12-15T23:10:17.653Z,72.16
2018-12-15T23:13:22.394Z,74.44
2018-12-15T23:16:27.317Z,73.05
2018-12-15T23:19:32.043Z,74.20
2018-12-15T23:22:36.794Z,74.96
2018-12-15T23:25:41.534Z,74.48
2018-12-15T23:28:48.196Z,74.62
2018-12-15T23:31:52.927Z,74.85
2018-12-15T23:34:57.688Z,72.72
2018-12-15T23:38:02.455Z,74.62
2018-12-15T23:41:07.225Z,75.01
2018-12-15T23:44:11.960Z,74.91
2018-12-15T23:47:16.722Z,73.49
2018-12-15T23:50:21.782Z,75.29
2018-12-15T23:53:26.543Z,74.19
2018-12-15T23:56:31.280Z,75.59
2018-12-15T23:59:36.042Z,72.73
